createdAt,value
2023-08-03T00:33:59.124Z,1.00
2023-08-03T00:39:45.436Z,1.00
2023-08-03T01:16:32.312Z,1.00
2023-08-03T01:19:02.690Z,1.00
2023-08-03T01:21:41.344Z,1.00
2023-08-03T01:30:07.461Z,1.00
2023-08-03T01:32:50.496Z,1.00
2023-08-03T01:35:24.004Z,1.00
2023-08-03T01:37:56.595Z,1.00
2023-08-03T01:40:37.560Z,1.00
2023-08-03T01:43:15.420Z,1.00
2023-08-03T01:45:50.842Z,1.00
2023-08-03T02:39:15.562Z,99.90
2023-08-03T02:41:46.591Z,99.90
2023-08-03T06:05:53.415Z,10.50
2023-08-03T06:08:25.326Z,1.00
2023-08-03T06:10:57.201Z,1.00
2023-08-03T06:13:33.031Z,1.00
2023-08-03T06:16:05.871Z,1.00
2023-08-03T06:18:35.454Z,1.00
2023-08-03T06:21:08.243Z,1.00
2023-08-03T06:23:42.265Z,1.00
2023-08-03T06:26:17.454Z,1.00
2023-08-03T06:28:48.981Z,1.00
2023-08-03T06:31:20.451Z,1.00
2023-08-03T06:33:51.117Z,1.00
2023-08-03T06:36:27.060Z,1.00
2023-08-03T06:38:57.743Z,1.00
2023-08-03T06:41:31.878Z,1.00
2023-08-03T06:44:03.763Z,1.00
2023-08-03T06:46:32.925Z,1.00
2023-08-03T06:49:06.088Z,1.00
2023-08-03T06:51:40.623Z,1.00
2023-08-03T06:54:11.864Z,1.00
2023-08-03T06:56:41.049Z,1.00
2023-08-03T06:59:09.939Z,1.00
2023-08-03T07:01:39.486Z,1.00
2023-08-03T07:04:08.748Z,1.00
2023-08-03T07:06:40.800Z,1.00
2023-08-03T07:09:10.367Z,1.00
2023-08-03T07:11:39.785Z,1.00
2023-08-03T07:14:11.084Z,1.00
2023-08-03T07:16:39.975Z,1.00
2023-08-03T07:19:11.916Z,1.00
2023-08-03T07:21:44.952Z,1.00
2023-08-03T07:24:13.753Z,1.00
2023-08-03T07:26:44.322Z,1.00
2023-08-03T07:29:13.388Z,1.00
2023-08-03T07:31:44.153Z,1.00
2023-08-03T07:34:14.970Z,1.00
2023-08-03T07:36:47.360Z,1.00
2023-08-03T07:39:19.360Z,1.00
2023-08-03T07:41:48.713Z,1.00
2023-08-03T07:44:18.587Z,1.00
2023-08-03T07:46:48.879Z,1.00
2023-08-03T07:49:20.814Z,1.00
2023-08-03T07:51:53.774Z,1.00
2023-08-03T07:54:26.093Z,1.00
2023-08-03T07:56:56.451Z,1.00
2023-08-03T07:59:27.329Z,1.00
2023-08-03T08:01:56.535Z,1.00
2023-08-03T08:04:26.052Z,1.00
2023-08-03T08:06:57.237Z,1.00
2023-08-03T08:09:27.420Z,1.00
2023-08-03T08:11:59.411Z,1.00
2023-08-03T08:14:29.439Z,1.00
2023-08-03T08:19:37.020Z,1.00
2023-08-03T08:22:16.292Z,1.00
2023-08-03T08:24:47.848Z,1.00
2023-08-03T08:27:19.230Z,1.00
2023-08-03T08:29:55.486Z,1.00
2023-08-03T08:32:25.229Z,1.00
2023-08-03T08:34:54.693Z,1.00
2023-08-03T08:37:30.706Z,1.00
2023-08-03T08:40:03.256Z,1.00
2023-08-03T08:42:32.902Z,1.00
2023-08-03T08:45:02.192Z,1.00
2023-08-03T08:47:31.698Z,1.00
2023-08-03T08:53:15.114Z,1.00
2023-08-03T09:00:51.790Z,1.00
2023-08-03T09:06:24.841Z,1.00
2023-08-03T09:09:02.120Z,1.00
2023-08-03T09:11:44.995Z,1.00
2023-08-03T09:14:15.777Z,1.00
2023-08-03T09:16:44.702Z,1.00
2023-08-03T09:19:14.644Z,1.00
2023-08-03T09:25:04.633Z,1.00
2023-08-03T09:30:22.392Z,1.00
2023-08-03T09:32:51.962Z,1.00
2023-08-03T09:35:24.316Z,1.00
2023-08-03T09:37:58.758Z,1.00
2023-08-03T09:40:45.453Z,1.00
2023-08-03T09:45:50.963Z,1.00
2023-08-03T09:48:21.669Z,1.00
2023-08-03T09:50:55.502Z,1.00
2023-08-03T09:53:28.825Z,1.00
2023-08-03T09:56:05.215Z,1.00
2023-08-03T09:58:45.497Z,1.00
2023-08-03T10:01:27.292Z,1.00
2023-08-03T10:04:03.203Z,1.00
2023-08-03T10:06:41.120Z,1.00
2023-08-03T10:09:16.071Z,1.00
2023-08-03T10:11:57.391Z,1.00
2023-08-03T10:14:46.714Z,1.00
2023-08-03T10:20:07.337Z,1.00
2023-08-03T10:22:37.445Z,1.00
2023-08-03T10:25:20.995Z,1.00
2023-08-03T10:31:58.717Z,1.00
2023-08-03T10:34:30.118Z,1.00
2023-08-03T10:37:00.861Z,1.00
2023-08-03T10:40:02.396Z,1.00
2023-08-03T10:45:32.058Z,1.00
2023-08-03T10:48:32.055Z,1.00
2023-08-03T10:51:05.337Z,1.00
2023-08-03T10:53:35.222Z,1.00
2023-08-03T10:56:19.603Z,1.00
2023-08-03T11:01:35.308Z,1.00
2023-08-03T11:04:08.143Z,1.00
2023-08-03T11:09:39.264Z,1.00
2023-08-03T11:12:30.154Z,1.00
2023-08-03T11:15:05.478Z,1.00
2023-08-03T11:17:37.363Z,1.00
2023-08-03T11:22:59.848Z,1.00
2023-08-03T11:25:29.651Z,1.00
2023-08-03T11:27:59.339Z,1.00
2023-08-03T11:30:29.024Z,1.00
2023-08-03T11:33:02.514Z,1.00
2023-08-03T11:35:43.991Z,1.00
2023-08-03T11:38:15.117Z,1.00
2023-08-03T11:40:47.903Z,1.00
2023-08-03T11:43:18.092Z,1.00
2023-08-03T11:45:52.034Z,1.00
2023-08-03T11:48:27.550Z,1.00
2023-08-03T11:51:07.589Z,1.00
2023-08-03T12:40:41.321Z,1.00
2023-08-03T14:36:28.499Z,1.00
2023-08-03T15:33:48.255Z,1.00
2023-08-03T15:36:40.699Z,1.00
2023-08-03T15:39:19.701Z,1.00
2023-08-03T15:41:53.779Z,1.00
2023-08-03T15:44:27.224Z,1.00
2023-08-03T15:49:43.589Z,1.00
2023-08-03T15:52:26.760Z,1.00
2023-08-03T16:07:08.013Z,1.00
2023-08-03T16:09:36.915Z,1.00
2023-08-03T16:12:06.530Z,1.00
2023-08-03T16:14:35.341Z,1.00
2023-08-03T16:17:05.955Z,1.00
2023-08-03T16:19:34.952Z,1.00
2023-08-03T16:22:05.279Z,1.00
2023-08-03T16:24:35.336Z,1.00
2023-08-03T16:27:04.138Z,1.00
2023-08-03T16:29:34.587Z,1.00
2023-08-03T16:32:15.598Z,1.00
2023-08-03T16:37:16.981Z,1.00
2023-08-03T16:39:47.590Z,1.00
2023-08-03T16:42:16.852Z,1.00
2023-08-03T16:44:45.762Z,1.00
2023-08-03T16:47:16.196Z,1.00
2023-08-03T16:49:45.045Z,1.00
2023-08-03T16:52:14.187Z,1.00
2023-08-03T16:54:46.620Z,1.00
2023-08-03T16:57:22.126Z,1.00
2023-08-03T16:59:54.473Z,1.00
2023-08-03T17:02:29.454Z,1.00
2023-08-03T17:04:59.170Z,1.00
2023-08-03T17:07:29.487Z,1.00
2023-08-03T17:10:01.351Z,1.00
2023-08-03T17:12:37.498Z,1.00
2023-08-03T17:15:10.522Z,1.00
2023-08-03T17:18:00.712Z,1.00
2023-08-03T17:20:38.524Z,1.00
2023-08-03T17:23:10.626Z,1.00
2023-08-03T17:25:41.179Z,1.00
2023-08-03T17:28:12.337Z,1.00
2023-08-03T17:30:43.324Z,1.00
2023-08-03T17:33:15.903Z,1.00
2023-08-03T17:35:46.137Z,1.00
2023-08-03T17:38:14.882Z,1.00
2023-08-03T17:40:44.841Z,1.00
2023-08-03T17:43:15.892Z,1.00
2023-08-03T17:45:46.937Z,1.00
2023-08-03T17:48:17.955Z,1.00
2023-08-03T17:50:48.919Z,1.00
2023-08-03T17:54:21.918Z,1.00
2023-08-03T17:56:53.518Z,1.00
2023-08-03T18:04:40.265Z,1.00
2023-08-03T18:07:23.551Z,1.00
2023-08-03T18:10:53.077Z,1.00
2023-08-03T18:13:27.780Z,1.00
2023-08-03T18:16:06.592Z,1.00
2023-08-03T18:18:46.205Z,1.00
2023-08-03T18:21:19.246Z,1.00
2023-08-03T18:23:51.063Z,1.00
2023-08-03T18:26:20.484Z,1.00
2023-08-03T18:28:52.020Z,1.00
2023-08-03T18:31:22.023Z,1.00
2023-08-03T18:33:58.503Z,1.00
2023-08-03T18:36:29.849Z,1.00
2023-08-03T18:38:59.269Z,1.00
2023-08-03T18:41:29.675Z,1.00
2023-08-03T18:43:59.671Z,1.00
2023-08-03T18:46:29.256Z,1.00
2023-08-03T18:49:00.321Z,1.00
2023-08-03T18:51:31.824Z,1.00
2023-08-03T18:56:54.626Z,1.00
2023-08-03T18:59:30.203Z,1.00
2023-08-03T19:02:03.618Z,1.00
2023-08-03T19:04:34.913Z,1.00
2023-08-03T19:07:07.531Z,1.00
2023-08-03T19:09:40.001Z,1.00
2023-08-03T19:12:11.333Z,1.00
2023-08-03T19:14:41.026Z,1.00
2023-08-03T19:17:12.933Z,1.00
2023-08-03T19:19:41.978Z,1.00
2023-08-03T19:22:29.474Z,1.00
2023-08-03T19:25:00.724Z,1.00
2023-08-03T19:27:33.153Z,1.00
2023-08-03T19:30:02.968Z,1.00
2023-08-03T19:32:32.357Z,1.00
2023-08-03T19:35:04.532Z,1.00
2023-08-03T19:37:35.257Z,1.00
2023-08-03T19:40:21.695Z,1.00
2023-08-03T19:42:53.350Z,1.00
2023-08-03T19:45:24.628Z,1.00
2023-08-03T19:48:01.116Z,1.00
2023-08-03T19:51:51.620Z,1.00
2023-08-03T20:06:37.446Z,99.90
2023-08-03T20:09:10.830Z,88.70
2023-08-03T20:11:44.139Z,79.20
2023-08-03T20:14:13.713Z,67.60
2023-08-03T20:16:48.147Z,46.80
2023-08-03T20:19:17.839Z,85.10
2023-08-03T20:21:49.574Z,99.90
2023-08-03T20:24:40.806Z,48.10
2023-08-03T20:27:13.718Z,22.10
2023-08-03T20:30:00.589Z,68.10
2023-08-03T20:32:34.675Z,16.00
2023-08-03T20:35:34.973Z,17.10
2023-08-03T20:40:54.543Z,30.90
2023-08-03T20:43:31.857Z,58.10
2023-08-03T20:46:12.459Z,65.30
2023-08-03T20:48:58.036Z,75.50
2023-08-03T20:51:40.325Z,79.70
2023-08-03T20:56:45.082Z,99.90
2023-08-03T20:59:21.616Z,99.90
2023-08-03T21:01:53.349Z,99.90
2023-08-03T21:04:26.640Z,99.90
2023-08-03T21:06:57.012Z,99.90
2023-08-03T21:09:27.930Z,99.90
2023-08-03T21:12:03.556Z,99.90
2023-08-03T21:19:28.365Z,99.90
2023-08-03T21:22:40.714Z,99.90
2023-08-03T21:31:24.050Z,99.90
2023-08-03T21:33:57.497Z,99.90
2023-08-03T21:36:35.137Z,99.90
2023-08-03T21:39:09.283Z,99.90
2023-08-03T21:41:53.257Z,99.90
2023-08-03T21:44:35.743Z,99.90
2023-08-03T21:47:11.519Z,99.90
2023-08-03T21:49:57.011Z,99.90
2023-08-03T21:52:40.336Z,99.90
2023-08-03T21:55:34.912Z,99.90
2023-08-03T21:58:08.291Z,99.90
2023-08-03T22:00:44.483Z,99.90
2023-08-03T22:03:22.818Z,99.90
2023-08-03T22:06:02.619Z,99.90
2023-08-03T22:08:50.834Z,99.90
2023-08-03T22:11:28.901Z,99.90
2023-08-03T22:14:08.256Z,99.90
2023-08-03T22:16:44.495Z,99.90
2023-08-03T22:19:22.989Z,99.90
2023-08-03T22:24:52.263Z,99.90
2023-08-03T22:27:42.602Z,99.90
2023-08-03T22:30:22.859Z,99.90
2023-08-03T22:35:53.147Z,99.90
2023-08-03T22:39:00.325Z,99.90
2023-08-03T22:45:10.896Z,99.90
2023-08-03T22:50:59.972Z,99.90
2023-08-03T22:53:36.834Z,99.90
2023-08-03T22:56:19.753Z,99.90
2023-08-03T22:59:10.218Z,99.90
2023-08-03T23:01:45.877Z,99.90
2023-08-03T23:04:24.969Z,99.90
2023-08-03T23:09:45.972Z,99.90
2023-08-03T23:12:32.241Z,99.90
2023-08-03T23:15:09.483Z,99.90
2023-08-03T23:17:47.717Z,99.90
2023-08-03T23:20:35.842Z,99.90
2023-08-03T23:23:05.385Z,99.90
2023-08-03T23:25:35.973Z,99.90
2023-08-03T23:28:31.400Z,99.90
2023-08-03T23:31:05.821Z,99.90
2023-08-03T23:33:38.569Z,99.90
2023-08-03T23:36:13.694Z,99.90
2023-08-03T23:38:43.167Z,99.90
2023-08-03T23:41:40.898Z,99.90
2023-08-03T23:44:25.639Z,99.90
2023-08-03T23:47:23.564Z,99.90
2023-08-03T23:49:55.592Z,99.90
2023-08-03T23:52:34.231Z,99.90
2023-08-03T23:58:18.744Z,99.90
